DSO136U LFMN-LFLB
Flight info
| Callsign | DSO136U |
|---|---|
| Flight time | 0h 45m |
| Altitude | 18000 |
| Route | PERUS A3 RETNO Z42 PINED |
| Aircraft | FA8X/M-SABDE2E3FGHIJ3J4J5P2RWXY/LB1D1 |
Departure
| Time | 2026-05-07 19:45 |
|---|---|
| Airport | Nice-Côte d'Azur Airport (LFMN) |
Arrival
| Time | 2026-05-07 20:30 |
|---|---|
| Airport | Chambéry Aix les Bains airport (LFLB) |
| Time | Latitude | Longitude | Altitude | Speed | Heading |
|---|---|---|---|---|---|
| 2026-05-07 19:25 | 43.65779 | 7.20770 | 26 ft | 0 kts | 349° |
| 2026-05-07 19:40 | 43.65799 | 7.20765 | 26 ft | 6 kts | 349° |
| 2026-05-07 19:40 | 43.65856 | 7.20764 | 26 ft | 10 kts | 39° |
| 2026-05-07 19:41 | 43.65860 | 7.20848 | 26 ft | 10 kts | 144° |
| 2026-05-07 19:41 | 43.65786 | 7.20870 | 26 ft | 11 kts | 170° |
| 2026-05-07 19:41 | 43.65713 | 7.20887 | 26 ft | 8 kts | 170° |
| 2026-05-07 19:41 | 43.65671 | 7.20897 | 26 ft | 4 kts | 169° |
| 2026-05-07 19:42 | 43.65624 | 7.20907 | 26 ft | 10 kts | 172° |
| 2026-05-07 19:42 | 43.65530 | 7.20928 | 26 ft | 16 kts | 169° |
| 2026-05-07 19:42 | 43.65408 | 7.20956 | 26 ft | 18 kts | 171° |
| 2026-05-07 19:42 | 43.65292 | 7.20880 | 26 ft | 20 kts | 224° |
| 2026-05-07 19:43 | 43.65200 | 7.20753 | 26 ft | 17 kts | 224° |
| 2026-05-07 19:43 | 43.65116 | 7.20638 | 26 ft | 17 kts | 224° |
| 2026-05-07 19:43 | 43.65031 | 7.20520 | 25 ft | 17 kts | 226° |
| 2026-05-07 19:43 | 43.64945 | 7.20404 | 25 ft | 17 kts | 224° |
| 2026-05-07 19:44 | 43.64857 | 7.20280 | 25 ft | 18 kts | 224° |
| 2026-05-07 19:44 | 43.64768 | 7.20188 | 25 ft | 13 kts | 184° |
| 2026-05-07 19:44 | 43.64705 | 7.20266 | 25 ft | 13 kts | 93° |
| 2026-05-07 19:44 | 43.64775 | 7.20387 | 25 ft | 37 kts | 44° |
| 2026-05-07 19:45 | 43.65240 | 7.21039 | 77 ft | 143 kts | 47° |
| 2026-05-07 19:45 | 43.65979 | 7.22076 | 1120 ft | 168 kts | 46° |
| 2026-05-07 19:45 | 43.66787 | 7.23227 | 2433 ft | 176 kts | 46° |
| 2026-05-07 19:45 | 43.67384 | 7.24638 | 3534 ft | 181 kts | 83° |
| 2026-05-07 19:46 | 43.67024 | 7.26218 | 4579 ft | 187 kts | 129° |
| 2026-05-07 19:46 | 43.66153 | 7.27582 | 5479 ft | 201 kts | 129° |
| 2026-05-07 19:46 | 43.65207 | 7.29074 | 6337 ft | 214 kts | 130° |
| 2026-05-07 19:46 | 43.64178 | 7.30609 | 7172 ft | 225 kts | 132° |
| 2026-05-07 19:47 | 43.62990 | 7.31987 | 8028 ft | 236 kts | 157° |
| 2026-05-07 19:47 | 43.61254 | 7.32131 | 8872 ft | 270 kts | 193° |
| 2026-05-07 19:47 | 43.59454 | 7.31217 | 10105 ft | 286 kts | 202° |
| 2026-05-07 19:47 | 43.57707 | 7.30070 | 11753 ft | 282 kts | 208° |
| 2026-05-07 19:48 | 43.56159 | 7.28688 | 13762 ft | 257 kts | 213° |
| 2026-05-07 19:48 | 43.54720 | 7.27342 | 14681 ft | 275 kts | 218° |
| 2026-05-07 19:48 | 43.53657 | 7.25118 | 15681 ft | 288 kts | 255° |
| 2026-05-07 19:48 | 43.53627 | 7.22545 | 16950 ft | 266 kts | 280° |
| 2026-05-07 19:49 | 43.54481 | 7.20098 | 17002 ft | 290 kts | 309° |
| 2026-05-07 19:49 | 43.56153 | 7.18488 | 16998 ft | 317 kts | 336° |
| 2026-05-07 19:49 | 43.58269 | 7.17191 | 17076 ft | 346 kts | 327° |
| 2026-05-07 19:49 | 43.59994 | 7.14994 | 17033 ft | 344 kts | 306° |
| 2026-05-07 19:50 | 43.61427 | 7.12307 | 17057 ft | 347 kts | 310° |
| 2026-05-07 19:50 | 43.63263 | 7.10131 | 17993 ft | 344 kts | 321° |
| 2026-05-07 19:50 | 43.65151 | 7.08059 | 17963 ft | 350 kts | 319° |
| 2026-05-07 19:50 | 43.66945 | 7.06006 | 17951 ft | 327 kts | 318° |
| 2026-05-07 19:51 | 43.68696 | 7.04003 | 17959 ft | 328 kts | 319° |
| 2026-05-07 19:51 | 43.70522 | 7.01917 | 18006 ft | 346 kts | 319° |
| 2026-05-07 19:51 | 43.72388 | 6.99782 | 17999 ft | 351 kts | 319° |
| 2026-05-07 19:51 | 43.74282 | 6.97614 | 18526 ft | 358 kts | 319° |
| 2026-05-07 19:52 | 43.76107 | 6.95522 | 20338 ft | 342 kts | 317° |
| 2026-05-07 19:52 | 43.77901 | 6.93464 | 21632 ft | 340 kts | 317° |
| 2026-05-07 19:52 | 43.79721 | 6.91375 | 22703 ft | 345 kts | 317° |
| 2026-05-07 19:52 | 43.81566 | 6.89255 | 23770 ft | 348 kts | 316° |
| 2026-05-07 19:53 | 43.83412 | 6.87133 | 24790 ft | 352 kts | 316° |
| 2026-05-07 19:53 | 43.85309 | 6.84951 | 25773 ft | 356 kts | 315° |
| 2026-05-07 19:53 | 43.87211 | 6.82761 | 26696 ft | 361 kts | 315° |
| 2026-05-07 19:53 | 43.89184 | 6.80485 | 26989 ft | 383 kts | 315° |
| 2026-05-07 19:54 | 43.91260 | 6.78091 | 27682 ft | 393 kts | 315° |
| 2026-05-07 19:54 | 43.93367 | 6.75643 | 28610 ft | 394 kts | 312° |
| 2026-05-07 19:54 | 43.95029 | 6.72717 | 29376 ft | 385 kts | 292° |
| 2026-05-07 19:54 | 43.96020 | 6.69350 | 30058 ft | 378 kts | 285° |
| 2026-05-07 19:55 | 43.98188 | 6.62517 | 30012 ft | 386 kts | 289° |
| 2026-05-07 19:55 | 44.00440 | 6.55731 | 30018 ft | 386 kts | 289° |
| 2026-05-07 19:56 | 44.02672 | 6.48977 | 30016 ft | 387 kts | 289° |
| 2026-05-07 19:56 | 44.04904 | 6.42207 | 30014 ft | 386 kts | 289° |
| 2026-05-07 19:57 | 44.07133 | 6.35428 | 30014 ft | 387 kts | 289° |
| 2026-05-07 19:57 | 44.09359 | 6.28643 | 30025 ft | 387 kts | 289° |
| 2026-05-07 19:58 | 44.11583 | 6.21845 | 30009 ft | 385 kts | 289° |
| 2026-05-07 19:58 | 44.13802 | 6.15047 | 30006 ft | 385 kts | 288° |
| 2026-05-07 19:59 | 44.16246 | 6.08361 | 30011 ft | 390 kts | 297° |
| 2026-05-07 19:59 | 44.19287 | 6.02031 | 29997 ft | 393 kts | 297° |
| 2026-05-07 20:00 | 44.22290 | 5.95698 | 30007 ft | 395 kts | 297° |
| 2026-05-07 20:00 | 44.25319 | 5.89300 | 30003 ft | 395 kts | 297° |
| 2026-05-07 20:01 | 44.28342 | 5.82900 | 30005 ft | 396 kts | 297° |
| 2026-05-07 20:01 | 44.29849 | 5.79704 | 29898 ft | 396 kts | 297° |
| 2026-05-07 20:01 | 44.31356 | 5.76504 | 29509 ft | 396 kts | 297° |
| 2026-05-07 20:02 | 44.32851 | 5.73327 | 29121 ft | 393 kts | 298° |
| 2026-05-07 20:02 | 44.34352 | 5.70135 | 28759 ft | 391 kts | 298° |
| 2026-05-07 20:02 | 44.35847 | 5.66948 | 28302 ft | 392 kts | 298° |
| 2026-05-07 20:02 | 44.37386 | 5.63812 | 27796 ft | 392 kts | 305° |
| 2026-05-07 20:03 | 44.39511 | 5.61370 | 27267 ft | 404 kts | 327° |
| 2026-05-07 20:03 | 44.42175 | 5.60149 | 26792 ft | 412 kts | 348° |
| 2026-05-07 20:03 | 44.45054 | 5.60275 | 26319 ft | 418 kts | 5° |
| 2026-05-07 20:03 | 44.47904 | 5.60711 | 25837 ft | 411 kts | 356° |
| 2026-05-07 20:04 | 44.50721 | 5.60327 | 25371 ft | 401 kts | 348° |
| 2026-05-07 20:04 | 44.53460 | 5.59816 | 24879 ft | 399 kts | 350° |
| 2026-05-07 20:04 | 44.56118 | 5.59383 | 24327 ft | 389 kts | 351° |
| 2026-05-07 20:04 | 44.58758 | 5.58951 | 23738 ft | 378 kts | 351° |
| 2026-05-07 20:05 | 44.61364 | 5.58522 | 23129 ft | 370 kts | 351° |
| 2026-05-07 20:05 | 44.63895 | 5.58106 | 22544 ft | 368 kts | 351° |
| 2026-05-07 20:05 | 44.66406 | 5.57692 | 21972 ft | 366 kts | 351° |
| 2026-05-07 20:05 | 44.68927 | 5.57275 | 21394 ft | 363 kts | 352° |
| 2026-05-07 20:06 | 44.71441 | 5.56860 | 20816 ft | 360 kts | 352° |
| 2026-05-07 20:06 | 44.73902 | 5.56452 | 20241 ft | 357 kts | 352° |
| 2026-05-07 20:06 | 44.76351 | 5.56047 | 19667 ft | 354 kts | 352° |
| 2026-05-07 20:06 | 44.78770 | 5.55646 | 19107 ft | 351 kts | 352° |
| 2026-05-07 20:07 | 44.81200 | 5.55243 | 18547 ft | 348 kts | 352° |
| 2026-05-07 20:07 | 44.83573 | 5.54849 | 17989 ft | 345 kts | 352° |
| 2026-05-07 20:07 | 44.85960 | 5.54452 | 17437 ft | 341 kts | 352° |
| 2026-05-07 20:07 | 44.88235 | 5.54074 | 16720 ft | 325 kts | 352° |
| 2026-05-07 20:08 | 44.90459 | 5.53703 | 16258 ft | 324 kts | 352° |
| 2026-05-07 20:08 | 44.92696 | 5.53331 | 15721 ft | 322 kts | 353° |
| 2026-05-07 20:08 | 44.94894 | 5.52964 | 15183 ft | 320 kts | 353° |
| 2026-05-07 20:08 | 44.97112 | 5.52594 | 14681 ft | 315 kts | 353° |
| 2026-05-07 20:09 | 44.99245 | 5.52239 | 14438 ft | 312 kts | 353° |
| 2026-05-07 20:09 | 45.01411 | 5.52080 | 14190 ft | 312 kts | 359° |
| 2026-05-07 20:09 | 45.03604 | 5.52074 | 13844 ft | 313 kts | 360° |
| 2026-05-07 20:10 | 45.07907 | 5.52037 | 13140 ft | 308 kts | 360° |
| 2026-05-07 20:10 | 45.10043 | 5.52017 | 13021 ft | 305 kts | 360° |
| 2026-05-07 20:10 | 45.12178 | 5.51997 | 13028 ft | 308 kts | 360° |
| 2026-05-07 20:10 | 45.14312 | 5.51976 | 13025 ft | 307 kts | 360° |
| 2026-05-07 20:11 | 45.16458 | 5.51956 | 13023 ft | 309 kts | 360° |
| 2026-05-07 20:11 | 45.18613 | 5.51936 | 13009 ft | 310 kts | 360° |
| 2026-05-07 20:11 | 45.20796 | 5.51915 | 12770 ft | 310 kts | 360° |
| 2026-05-07 20:11 | 45.22906 | 5.51895 | 12603 ft | 297 kts | 360° |
| 2026-05-07 20:12 | 45.24907 | 5.51876 | 12430 ft | 283 kts | 360° |
| 2026-05-07 20:12 | 45.26857 | 5.51858 | 12217 ft | 281 kts | 360° |
| 2026-05-07 20:12 | 45.28816 | 5.51554 | 12052 ft | 280 kts | 346° |
| 2026-05-07 20:12 | 45.30704 | 5.50827 | 11900 ft | 282 kts | 344° |
| 2026-05-07 20:13 | 45.32590 | 5.50099 | 11718 ft | 281 kts | 345° |
| 2026-05-07 20:13 | 45.34468 | 5.49389 | 11523 ft | 281 kts | 345° |
| 2026-05-07 20:13 | 45.36351 | 5.48675 | 11327 ft | 279 kts | 345° |
| 2026-05-07 20:13 | 45.38232 | 5.47962 | 11127 ft | 280 kts | 345° |
| 2026-05-07 20:14 | 45.40105 | 5.47251 | 10933 ft | 278 kts | 345° |
| 2026-05-07 20:14 | 45.41986 | 5.46537 | 10737 ft | 279 kts | 345° |
| 2026-05-07 20:14 | 45.43863 | 5.45823 | 10544 ft | 277 kts | 345° |
| 2026-05-07 20:14 | 45.45727 | 5.45114 | 10343 ft | 276 kts | 345° |
| 2026-05-07 20:15 | 45.47603 | 5.44400 | 10140 ft | 276 kts | 345° |
| 2026-05-07 20:15 | 45.49456 | 5.43790 | 9941 ft | 276 kts | 351° |
| 2026-05-07 20:15 | 45.51351 | 5.43403 | 9748 ft | 276 kts | 353° |
| 2026-05-07 20:15 | 45.53254 | 5.43028 | 9556 ft | 274 kts | 352° |
| 2026-05-07 20:16 | 45.55124 | 5.42650 | 9364 ft | 273 kts | 352° |
| 2026-05-07 20:16 | 45.57020 | 5.42267 | 9167 ft | 271 kts | 352° |
| 2026-05-07 20:16 | 45.58862 | 5.41894 | 8969 ft | 271 kts | 352° |
| 2026-05-07 20:16 | 45.60731 | 5.41516 | 8782 ft | 270 kts | 352° |
| 2026-05-07 20:17 | 45.62598 | 5.41138 | 8584 ft | 269 kts | 352° |
| 2026-05-07 20:17 | 45.64439 | 5.40765 | 8384 ft | 268 kts | 353° |
| 2026-05-07 20:17 | 45.66274 | 5.40393 | 8192 ft | 267 kts | 353° |
| 2026-05-07 20:17 | 45.68126 | 5.40017 | 7995 ft | 266 kts | 353° |
| 2026-05-07 20:18 | 45.69941 | 5.39649 | 7802 ft | 264 kts | 352° |
| 2026-05-07 20:18 | 45.71765 | 5.39278 | 7609 ft | 263 kts | 353° |
| 2026-05-07 20:18 | 45.73586 | 5.38908 | 7406 ft | 261 kts | 353° |
| 2026-05-07 20:18 | 45.75363 | 5.38546 | 7203 ft | 260 kts | 353° |
| 2026-05-07 20:19 | 45.77162 | 5.38276 | 6987 ft | 259 kts | 5° |
| 2026-05-07 20:19 | 45.78830 | 5.39135 | 6747 ft | 254 kts | 39° |
| 2026-05-07 20:19 | 45.79871 | 5.41149 | 6567 ft | 246 kts | 69° |
| 2026-05-07 20:19 | 45.80477 | 5.43338 | 6521 ft | 229 kts | 67° |
| 2026-05-07 20:20 | 45.81303 | 5.45259 | 6510 ft | 226 kts | 53° |
| 2026-05-07 20:20 | 45.82299 | 5.47014 | 6522 ft | 228 kts | 52° |
| 2026-05-07 20:20 | 45.83294 | 5.48793 | 6533 ft | 230 kts | 53° |
| 2026-05-07 20:20 | 45.84295 | 5.50597 | 6527 ft | 231 kts | 53° |
| 2026-05-07 20:21 | 45.85309 | 5.52426 | 6524 ft | 231 kts | 53° |
| 2026-05-07 20:21 | 45.86297 | 5.54206 | 6529 ft | 231 kts | 52° |
| 2026-05-07 20:21 | 45.87308 | 5.56032 | 6529 ft | 230 kts | 53° |
| 2026-05-07 20:21 | 45.87885 | 5.58100 | 6509 ft | 228 kts | 89° |
| 2026-05-07 20:22 | 45.87613 | 5.60325 | 6545 ft | 227 kts | 107° |
| 2026-05-07 20:22 | 45.87264 | 5.62540 | 6536 ft | 228 kts | 99° |
| 2026-05-07 20:22 | 45.87048 | 5.64790 | 6534 ft | 228 kts | 98° |
| 2026-05-07 20:22 | 45.86832 | 5.67031 | 6533 ft | 227 kts | 98° |
| 2026-05-07 20:23 | 45.86612 | 5.69258 | 6531 ft | 227 kts | 98° |
| 2026-05-07 20:23 | 45.86390 | 5.71502 | 6535 ft | 228 kts | 98° |
| 2026-05-07 20:23 | 45.86171 | 5.73715 | 6517 ft | 215 kts | 98° |
| 2026-05-07 20:23 | 45.85968 | 5.75765 | 6514 ft | 200 kts | 98° |
| 2026-05-07 20:24 | 45.85780 | 5.77730 | 6513 ft | 197 kts | 95° |
| 2026-05-07 20:24 | 45.85777 | 5.79710 | 6373 ft | 201 kts | 87° |
| 2026-05-07 20:24 | 45.85864 | 5.81616 | 6209 ft | 184 kts | 87° |
| 2026-05-07 20:24 | 45.85939 | 5.83450 | 5831 ft | 179 kts | 87° |
| 2026-05-07 20:25 | 45.85970 | 5.85190 | 5443 ft | 173 kts | 96° |
| 2026-05-07 20:25 | 45.85455 | 5.86701 | 5057 ft | 170 kts | 138° |
| 2026-05-07 20:25 | 45.84370 | 5.87198 | 5022 ft | 171 kts | 185° |
| 2026-05-07 20:25 | 45.83267 | 5.86547 | 5056 ft | 175 kts | 206° |
| 2026-05-07 20:26 | 45.82070 | 5.86196 | 5043 ft | 175 kts | 181° |
| 2026-05-07 20:26 | 45.80868 | 5.86340 | 5037 ft | 173 kts | 168° |
| 2026-05-07 20:26 | 45.79738 | 5.86610 | 5048 ft | 160 kts | 170° |
| 2026-05-07 20:26 | 45.78656 | 5.86784 | 4916 ft | 145 kts | 173° |
| 2026-05-07 20:27 | 45.77658 | 5.86898 | 4506 ft | 142 kts | 174° |
| 2026-05-07 20:27 | 45.76654 | 5.86995 | 4156 ft | 148 kts | 174° |
| 2026-05-07 20:27 | 45.75635 | 5.87082 | 3958 ft | 145 kts | 175° |
| 2026-05-07 20:27 | 45.74583 | 5.87166 | 3720 ft | 146 kts | 175° |
| 2026-05-07 20:28 | 45.73516 | 5.87250 | 3455 ft | 153 kts | 175° |
| 2026-05-07 20:28 | 45.72435 | 5.87339 | 3173 ft | 159 kts | 174° |
| 2026-05-07 20:28 | 45.71370 | 5.87427 | 2884 ft | 154 kts | 174° |
| 2026-05-07 20:28 | 45.70331 | 5.87470 | 2565 ft | 151 kts | 176° |
| 2026-05-07 20:29 | 45.69284 | 5.87514 | 2273 ft | 152 kts | 176° |
| 2026-05-07 20:29 | 45.68238 | 5.87571 | 1964 ft | 146 kts | 175° |
| 2026-05-07 20:29 | 45.67285 | 5.87670 | 1626 ft | 131 kts | 174° |
| 2026-05-07 20:29 | 45.66396 | 5.87760 | 1376 ft | 127 kts | 174° |
| 2026-05-07 20:30 | 45.65526 | 5.87847 | 1109 ft | 125 kts | 174° |
| 2026-05-07 20:30 | 45.64661 | 5.87947 | 839 ft | 124 kts | 175° |
| 2026-05-07 20:30 | 45.63924 | 5.88012 | 778 ft | 70 kts | 177° |
| 2026-05-07 20:30 | 45.63564 | 5.88044 | 781 ft | 43 kts | 176° |
| 2026-05-07 20:31 | 45.63278 | 5.88068 | 782 ft | 32 kts | 178° |
| 2026-05-07 20:31 | 45.63153 | 5.88143 | 783 ft | 19 kts | 88° |
| 2026-05-07 20:31 | 45.63221 | 5.88274 | 782 ft | 18 kts | 2° |
| 2026-05-07 20:31 | 45.63354 | 5.88265 | 782 ft | 20 kts | 357° |
| 2026-05-07 20:32 | 45.63504 | 5.88253 | 781 ft | 22 kts | 357° |
| 2026-05-07 20:32 | 45.63670 | 5.88240 | 780 ft | 24 kts | 356° |
| 2026-05-07 20:32 | 45.63838 | 5.88245 | 779 ft | 23 kts | 0° |
| 2026-05-07 20:32 | 45.64001 | 5.88234 | 778 ft | 23 kts | 356° |
| 2026-05-07 20:33 | 45.64125 | 5.88248 | 777 ft | 14 kts | 22° |
| 2026-05-07 20:33 | 45.64154 | 5.88266 | 777 ft | 4 kts | 73° |
| 2026-05-07 20:33 | 45.64157 | 5.88313 | 777 ft | 0 kts | 87° |
| 2026-05-07 20:33 | 45.64157 | 5.88315 | 777 ft | 0 kts | 87° |